Time;durP1;ratioP1;P1;durP2;ratioP2;P2;SDS_P1;SDS_P2;PMS_P1;PMS_P2;Temp;Humidity;BMP_temperature;BMP_pressure;BME280_temperature;BME280_humidity;BME280_pressure;Samples;Min_cycle;Max_cycle;Signal;HPM_P1;HPM_P2
2023/06/02 00:01:03;;;;;;;10.63;2.60;;;12.90;99.90;;;;;;4913563;28;20036;-77
2023/06/02 00:03:32;;;;;;;8.55;2.42;;;12.90;99.90;;;;;;4892661;29;20090;-77
2023/06/02 00:06:01;;;;;;;12.40;2.92;;;12.80;99.90;;;;;;4900111;28;20050;-75
2023/06/02 00:08:32;;;;;;;11.75;3.25;;;12.90;99.90;;;;;;4927856;28;20035;-76
2023/06/02 00:11:00;;;;;;;9.73;2.85;;;12.90;99.90;;;;;;4912634;28;20606;-77
2023/06/02 00:13:26;;;;;;;10.48;2.67;;;12.80;99.90;;;;;;4929837;28;20423;-74
2023/06/02 00:15:52;;;;;;;10.45;2.80;;;12.90;99.90;;;;;;4913348;28;20158;-75
2023/06/02 00:18:20;;;;;;;13.98;3.05;;;12.90;99.90;;;;;;4926968;29;20749;-74
2023/06/02 00:20:46;;;;;;;10.75;3.15;;;12.80;99.90;;;;;;4897460;29;20511;-74
2023/06/02 00:23:12;;;;;;;10.52;2.83;;;12.70;99.90;;;;;;4912736;28;20105;-75
2023/06/02 00:25:39;;;;;;;12.88;2.63;;;12.80;99.90;;;;;;4928822;28;20677;-76
2023/06/02 00:28:05;;;;;;;8.35;2.60;;;12.60;99.90;;;;;;4928078;28;20044;-77
2023/06/02 00:30:31;;;;;;;9.63;2.40;;;12.60;99.90;;;;;;4928721;28;20043;-76
2023/06/02 00:32:57;;;;;;;11.90;2.50;;;12.60;99.90;;;;;;4912816;29;20635;-75
2023/06/02 00:35:24;;;;;;;9.07;2.72;;;12.60;99.90;;;;;;4911202;29;20043;-77
2023/06/02 00:37:50;;;;;;;7.68;2.85;;;12.60;99.90;;;;;;4895803;29;20484;-78
2023/06/02 00:40:15;;;;;;;9.48;2.90;;;12.60;99.90;;;;;;4913594;28;20044;-76
2023/06/02 00:42:41;;;;;;;11.50;3.28;;;12.60;99.90;;;;;;4927978;28;20054;-77
2023/06/02 00:45:07;;;;;;;14.73;2.83;;;12.60;99.90;;;;;;4913406;28;20039;-77
2023/06/02 00:47:33;;;;;;;8.15;2.70;;;12.60;99.90;;;;;;4906458;28;20068;-77
2023/06/02 00:49:59;;;;;;;11.85;2.47;;;12.60;99.90;;;;;;4911717;28;20074;-76
2023/06/02 00:52:26;;;;;;;10.77;2.42;;;12.60;99.90;;;;;;4910789;28;20047;-75
2023/06/02 00:54:53;;;;;;;11.02;2.85;;;12.60;99.90;;;;;;4928303;29;20126;-77
2023/06/02 00:57:19;;;;;;;10.43;2.72;;;12.50;99.90;;;;;;4912604;28;20040;-76
2023/06/02 00:59:45;;;;;;;11.40;3.15;;;12.50;99.90;;;;;;4907897;28;20074;-75
2023/06/02 01:02:11;;;;;;;15.73;2.83;;;12.50;99.90;;;;;;4904678;28;20083;-76
2023/06/02 01:04:40;;;;;;;10.80;3.03;;;12.50;99.90;;;;;;4929443;29;20048;-75
2023/06/02 01:07:07;;;;;;;16.73;2.88;;;12.50;99.90;;;;;;4894077;29;20048;-77
2023/06/02 01:09:34;;;;;;;8.98;2.25;;;12.50;99.90;;;;;;4922455;29;20097;-79
2023/06/02 01:12:01;;;;;;;9.77;3.00;;;12.50;99.90;;;;;;4912366;28;20043;-78
2023/06/02 01:14:27;;;;;;;8.88;2.58;;;12.40;99.90;;;;;;4928577;28;20047;-77
2023/06/02 01:16:53;;;;;;;9.40;2.58;;;12.50;99.90;;;;;;4893905;29;20431;-78
2023/06/02 01:19:25;;;;;;;14.07;2.42;;;12.50;99.90;;;;;;4905686;28;20092;-74
2023/06/02 01:22:01;;;;;;;11.98;3.55;;;12.50;99.90;;;;;;4927548;28;20043;-76
2023/06/02 01:24:48;;;;;;;12.23;2.80;;;12.40;99.90;;;;;;4928510;28;20047;-76
2023/06/02 01:27:15;;;;;;;13.73;3.53;;;12.40;99.90;;;;;;4910101;29;20039;-78
2023/06/02 01:29:42;;;;;;;11.35;3.15;;;12.40;99.90;;;;;;4910136;28;20036;-77
2023/06/02 01:32:33;;;;;;;7.68;2.53;;;12.30;99.90;;;;;;4911780;29;20384;-74
2023/06/02 01:35:09;;;;;;;12.13;3.35;;;12.30;99.90;;;;;;4912275;29;20036;-78
2023/06/02 01:37:40;;;;;;;13.15;2.50;;;12.40;99.90;;;;;;4931612;29;20080;-78
2023/06/02 01:40:08;;;;;;;9.60;2.97;;;12.40;99.90;;;;;;4914179;28;20071;-75
2023/06/02 01:42:34;;;;;;;12.57;2.58;;;12.40;99.90;;;;;;4931475;29;20044;-78
2023/06/02 01:45:02;;;;;;;9.20;2.90;;;12.50;99.90;;;;;;4900182;29;20069;-76
2023/06/02 01:47:28;;;;;;;11.00;2.50;;;12.40;99.90;;;;;;4913977;29;20819;-76
2023/06/02 01:49:54;;;;;;;10.60;3.05;;;12.50;99.90;;;;;;4883222;29;20048;-78
2023/06/02 01:52:20;;;;;;;11.15;2.75;;;12.50;99.90;;;;;;4916249;28;20130;-75
2023/06/02 01:54:46;;;;;;;12.13;2.55;;;12.50;99.90;;;;;;4932283;29;20138;-78
2023/06/02 01:57:12;;;;;;;11.32;2.78;;;12.50;99.90;;;;;;4902355;28;20040;-76
2023/06/02 01:59:38;;;;;;;11.10;2.60;;;12.50;99.90;;;;;;4931919;28;20058;-74
2023/06/02 02:02:05;;;;;;;10.23;2.67;;;12.50;99.90;;;;;;4915852;29;20560;-76
2023/06/02 02:04:30;;;;;;;5.70;2.38;;;12.50;99.90;;;;;;4907621;28;20044;-77
2023/06/02 02:06:57;;;;;;;14.38;3.55;;;12.50;99.90;;;;;;4903568;29;20053;-76
2023/06/02 02:09:22;;;;;;;11.63;3.17;;;12.70;99.90;;;;;;4905347;28;20040;-78
2023/06/02 02:11:48;;;;;;;10.20;2.40;;;12.70;99.90;;;;;;4927940;28;20393;-81
2023/06/02 02:14:14;;;;;;;7.88;2.65;;;12.60;99.90;;;;;;4908513;28;20047;-78
2023/06/02 02:16:45;;;;;;;11.90;2.67;;;12.60;99.90;;;;;;4907637;29;20571;-81
2023/06/02 02:19:16;;;;;;;13.88;3.30;;;12.60;99.90;;;;;;4895382;28;20058;-77
2023/06/02 02:21:42;;;;;;;17.55;3.33;;;12.60;99.90;;;;;;4919818;28;20048;-78
2023/06/02 02:24:09;;;;;;;13.02;3.13;;;12.70;99.90;;;;;;4941140;28;20052;-76
2023/06/02 02:26:35;;;;;;;11.88;2.63;;;12.30;99.90;;;;;;4930402;28;20044;-78
2023/06/02 02:29:02;;;;;;;14.70;3.38;;;12.60;99.90;;;;;;4924952;29;20095;-77
2023/06/02 02:31:30;;;;;;;14.23;2.75;;;12.60;99.90;;;;;;4924991;28;20043;-81
2023/06/02 02:33:56;;;;;;;11.57;3.08;;;12.70;99.90;;;;;;4940407;28;20040;-79
2023/06/02 02:36:22;;;;;;;15.68;2.97;;;12.70;99.90;;;;;;4921096;28;20396;-77
2023/06/02 02:38:48;;;;;;;11.10;2.75;;;12.70;99.90;;;;;;4915973;29;20047;-74
2023/06/02 02:41:14;;;;;;;13.90;2.95;;;12.80;99.90;;;;;;4914013;29;20043;-77
2023/06/02 02:43:39;;;;;;;10.23;3.13;;;12.70;99.90;;;;;;4933001;28;20043;-74
2023/06/02 02:46:05;;;;;;;8.20;2.40;;;12.70;99.90;;;;;;4917359;28;20448;-76
2023/06/02 02:48:32;;;;;;;13.15;2.90;;;12.80;99.90;;;;;;4933575;28;20503;-78
2023/06/02 02:50:58;;;;;;;8.77;2.53;;;12.80;99.90;;;;;;4917912;28;20060;-78
2023/06/02 02:53:24;;;;;;;13.15;2.58;;;12.70;99.90;;;;;;4902347;28;20051;-77
2023/06/02 02:55:51;;;;;;;9.85;2.55;;;12.70;99.90;;;;;;4932113;28;20047;-76
2023/06/02 02:58:18;;;;;;;17.63;3.53;;;12.80;99.90;;;;;;4933824;28;20087;-77
2023/06/02 03:00:45;;;;;;;13.35;3.20;;;12.70;99.90;;;;;;4915957;29;20039;-78
2023/06/02 03:03:11;;;;;;;12.30;2.78;;;12.80;99.90;;;;;;4913549;28;20101;-79
2023/06/02 03:05:37;;;;;;;15.50;3.03;;;12.80;99.90;;;;;;4899292;29;20039;-79
2023/06/02 03:08:04;;;;;;;8.75;3.15;;;12.80;99.90;;;;;;4911755;28;20066;-79
2023/06/02 03:10:30;;;;;;;11.63;2.63;;;12.90;99.90;;;;;;4900079;29;20042;-77
2023/06/02 03:12:56;;;;;;;17.45;3.30;;;13.00;99.90;;;;;;4878124;29;20044;-82
2023/06/02 03:15:21;;;;;;;15.02;2.70;;;12.90;99.90;;;;;;4915989;29;20046;-80
2023/06/02 03:17:50;;;;;;;12.10;2.63;;;12.90;99.90;;;;;;4929102;28;20052;-77
2023/06/02 03:20:17;;;;;;;8.82;2.40;;;12.90;99.90;;;;;;4929362;29;20047;-76
2023/06/02 03:22:43;;;;;;;13.75;3.13;;;13.00;99.90;;;;;;4914201;28;20461;-78
2023/06/02 03:25:09;;;;;;;14.80;3.30;;;13.00;99.90;;;;;;4909612;29;20114;-77
2023/06/02 03:27:35;;;;;;;10.38;2.30;;;12.90;99.90;;;;;;4909031;28;20112;-77
2023/06/02 03:30:02;;;;;;;15.75;2.45;;;13.00;99.90;;;;;;4912419;29;20064;-79
2023/06/02 03:32:28;;;;;;;13.80;3.35;;;13.00;99.90;;;;;;4912616;29;20054;-75
2023/06/02 03:34:53;;;;;;;14.55;3.20;;;13.10;99.90;;;;;;4893817;28;20416;-76
2023/06/02 03:37:19;;;;;;;13.32;3.00;;;13.00;99.90;;;;;;4911400;28;20459;-78
2023/06/02 03:39:45;;;;;;;14.50;2.85;;;13.10;99.90;;;;;;4896720;28;20688;-77
2023/06/02 03:42:11;;;;;;;10.20;2.85;;;13.00;99.90;;;;;;4913707;28;20036;-75
2023/06/02 03:44:37;;;;;;;14.55;2.92;;;13.10;99.90;;;;;;4951317;28;20039;-77
2023/06/02 03:47:02;;;;;;;14.23;2.97;;;13.10;99.90;;;;;;4927372;29;20047;-77
2023/06/02 03:49:29;;;;;;;12.60;2.85;;;13.20;99.90;;;;;;4928677;28;20063;-77
2023/06/02 03:51:55;;;;;;;12.95;2.83;;;13.20;99.90;;;;;;4894362;29;20088;-75
2023/06/02 03:54:21;;;;;;;13.18;3.15;;;13.20;99.90;;;;;;4904519;28;20075;-75
2023/06/02 03:56:46;;;;;;;15.68;3.92;;;13.20;99.90;;;;;;4897880;29;20054;-76
2023/06/02 03:59:12;;;;;;;13.13;2.65;;;13.30;99.90;;;;;;4926830;28;20492;-76
2023/06/02 04:01:41;;;;;;;19.63;3.20;;;13.30;99.90;;;;;;4894691;29;20071;-76
2023/06/02 04:04:11;;;;;;;15.70;3.67;;;13.20;99.90;;;;;;4921870;28;20119;-81
2023/06/02 04:06:38;;;;;;;13.02;3.45;;;13.30;99.90;;;;;;4895181;28;20500;-78
2023/06/02 04:09:03;;;;;;;12.00;3.13;;;13.30;99.90;;;;;;4928453;28;20039;-79
2023/06/02 04:11:29;;;;;;;12.38;3.08;;;13.30;99.90;;;;;;4879888;28;20082;-76
2023/06/02 04:13:55;;;;;;;12.40;3.05;;;13.30;99.90;;;;;;4911582;29;20076;-75
2023/06/02 04:16:20;;;;;;;16.17;4.10;;;13.40;99.90;;;;;;4912993;28;20059;-77
2023/06/02 04:18:46;;;;;;;12.10;3.50;;;13.50;99.90;;;;;;4913903;29;20048;-75
2023/06/02 04:21:12;;;;;;;11.18;3.20;;;13.40;99.90;;;;;;4896965;29;20117;-78
2023/06/02 04:23:38;;;;;;;16.58;3.08;;;13.40;99.90;;;;;;4896730;28;20055;-77
2023/06/02 04:26:03;;;;;;;18.15;3.75;;;13.40;99.90;;;;;;4909285;28;20044;-81
2023/06/02 04:28:29;;;;;;;17.25;3.83;;;13.40;99.90;;;;;;4898437;29;20043;-78
2023/06/02 04:30:56;;;;;;;21.38;4.40;;;13.50;99.90;;;;;;4912675;28;20039;-80
2023/06/02 04:33:23;;;;;;;15.48;3.50;;;13.40;99.90;;;;;;4912424;28;20050;-77
2023/06/02 04:35:49;;;;;;;15.90;3.53;;;13.50;99.90;;;;;;4911699;29;20039;-79
2023/06/02 04:38:14;;;;;;;14.63;3.65;;;13.60;99.90;;;;;;4892040;29;20044;-79
2023/06/02 04:40:42;;;;;;;18.75;4.30;;;13.60;99.90;;;;;;4889411;29;20401;-74
2023/06/02 04:43:08;;;;;;;14.80;3.50;;;13.70;99.90;;;;;;4912494;28;20035;-81
2023/06/02 04:45:34;;;;;;;16.45;3.75;;;13.70;99.90;;;;;;4928328;29;20484;-75
2023/06/02 04:48:01;;;;;;;13.20;3.90;;;13.70;99.90;;;;;;4897233;28;20044;-77
2023/06/02 04:50:27;;;;;;;17.38;4.28;;;13.80;99.90;;;;;;4898309;28;20392;-74
2023/06/02 04:52:53;;;;;;;12.55;3.30;;;13.70;99.90;;;;;;4928163;28;20726;-75
2023/06/02 04:55:19;;;;;;;15.93;4.00;;;13.90;99.90;;;;;;4910636;28;20142;-78
2023/06/02 04:57:45;;;;;;;13.00;3.25;;;13.90;99.90;;;;;;4911519;28;20126;-75
2023/06/02 05:00:13;;;;;;;14.90;3.10;;;13.90;99.90;;;;;;4913983;28;20170;-76
2023/06/02 05:02:38;;;;;;;15.77;4.18;;;13.90;99.90;;;;;;4916008;28;20439;-78
2023/06/02 05:05:06;;;;;;;16.48;3.60;;;14.00;99.90;;;;;;4913945;29;20047;-76
2023/06/02 05:07:32;;;;;;;13.25;3.58;;;14.00;99.90;;;;;;4928014;28;20086;-80
2023/06/02 05:09:57;;;;;;;14.50;4.07;;;14.00;99.90;;;;;;4914113;28;20063;-77
2023/06/02 05:12:25;;;;;;;16.70;4.07;;;14.10;99.90;;;;;;4929192;28;20043;-75
2023/06/02 05:14:51;;;;;;;13.60;3.92;;;14.20;99.90;;;;;;4880329;29;20044;-77
2023/06/02 05:17:22;;;;;;;13.75;3.97;;;14.20;99.90;;;;;;4902997;29;20616;-78
2023/06/02 05:19:48;;;;;;;13.60;3.55;;;14.40;99.90;;;;;;4925210;29;20040;-80
2023/06/02 05:22:14;;;;;;;11.80;3.60;;;14.30;99.90;;;;;;4926440;29;20135;-76
2023/06/02 05:24:39;;;;;;;16.10;3.97;;;14.50;99.90;;;;;;4912971;29;20044;-80
2023/06/02 05:27:07;;;;;;;19.38;4.03;;;14.50;99.90;;;;;;4927184;28;20050;-76
2023/06/02 05:29:33;;;;;;;16.80;3.67;;;14.50;99.90;;;;;;4899794;29;20043;-77
2023/06/02 05:31:58;;;;;;;15.35;4.13;;;14.50;99.90;;;;;;4915849;29;20122;-81
2023/06/02 05:34:25;;;;;;;17.90;3.58;;;14.60;99.90;;;;;;4928069;28;20401;-75
2023/06/02 05:36:50;;;;;;;22.80;4.65;;;14.70;99.90;;;;;;4926658;28;20044;-80
2023/06/02 05:39:16;;;;;;;14.80;4.45;;;14.80;99.90;;;;;;4924245;28;20036;-78
2023/06/02 05:41:42;;;;;;;14.63;4.82;;;14.70;99.90;;;;;;4927593;28;20480;-80
2023/06/02 05:44:08;;;;;;;16.60;4.63;;;14.80;99.90;;;;;;4896324;28;20079;-76
2023/06/02 05:46:34;;;;;;;23.42;4.82;;;14.80;99.90;;;;;;4911103;28;20547;-77
2023/06/02 05:49:00;;;;;;;14.23;4.00;;;14.90;99.90;;;;;;4911671;29;20411;-75
2023/06/02 05:51:25;;;;;;;21.42;4.55;;;15.00;99.90;;;;;;4910905;28;20556;-77
2023/06/02 05:53:51;;;;;;;19.05;5.38;;;15.00;99.90;;;;;;4895112;29;20106;-76
2023/06/02 05:56:17;;;;;;;28.80;4.80;;;15.10;99.90;;;;;;4910032;29;20047;-74
2023/06/02 05:58:43;;;;;;;19.42;3.90;;;15.10;99.90;;;;;;4909793;28;20059;-75
2023/06/02 06:01:11;;;;;;;20.63;4.30;;;15.20;99.90;;;;;;4909643;28;20664;-76
2023/06/02 06:03:36;;;;;;;24.00;4.57;;;15.30;99.90;;;;;;4878419;29;20071;-80
2023/06/02 06:06:03;;;;;;;20.85;4.65;;;15.30;99.90;;;;;;4910976;28;20091;-80
2023/06/02 06:08:29;;;;;;;21.30;5.00;;;15.40;99.90;;;;;;4880468;29;20090;-74
2023/06/02 06:10:55;;;;;;;14.77;5.15;;;15.40;99.90;;;;;;4909883;29;20451;-75
2023/06/02 06:13:21;;;;;;;19.95;4.90;;;15.50;99.90;;;;;;4912130;28;20186;-77
2023/06/02 06:15:47;;;;;;;17.83;5.07;;;15.60;99.90;;;;;;4902123;28;20110;-77
2023/06/02 06:18:13;;;;;;;18.15;4.40;;;15.80;99.90;;;;;;4907298;28;20043;-75
2023/06/02 06:20:43;;;;;;;16.02;3.95;;;15.70;99.90;;;;;;4927018;29;20040;-76
2023/06/02 06:23:10;;;;;;;12.05;4.28;;;16.10;99.90;;;;;;4928183;28;20044;-78
2023/06/02 06:25:36;;;;;;;10.35;4.10;;;16.10;99.90;;;;;;4930072;29;20392;-76
2023/06/02 06:28:02;;;;;;;20.58;4.82;;;16.20;99.90;;;;;;4911814;28;20036;-80
2023/06/02 06:30:28;;;;;;;18.27;4.43;;;16.20;99.90;;;;;;4926389;28;20032;-78
2023/06/02 06:32:53;;;;;;;21.40;4.75;;;16.30;99.90;;;;;;4897647;28;20047;-76
2023/06/02 06:35:19;;;;;;;20.67;5.03;;;16.10;99.90;;;;;;4913394;29;20100;-77
2023/06/02 06:37:45;;;;;;;12.73;4.05;;;16.50;99.90;;;;;;4916127;28;20055;-79
2023/06/02 06:40:11;;;;;;;13.40;3.85;;;16.50;99.90;;;;;;4927877;28;20048;-78
2023/06/02 06:42:36;;;;;;;15.07;4.25;;;16.80;99.90;;;;;;4914571;28;20051;-74
2023/06/02 06:45:02;;;;;;;16.63;4.05;;;16.90;99.90;;;;;;4929986;29;20395;-76
2023/06/02 06:47:28;;;;;;;13.70;3.83;;;16.90;99.90;;;;;;4896053;28;20094;-77
2023/06/02 06:49:54;;;;;;;16.20;3.63;;;17.00;99.90;;;;;;4906365;28;20075;-76
2023/06/02 06:52:20;;;;;;;15.95;3.75;;;17.00;99.90;;;;;;4912956;28;20063;-75
2023/06/02 06:54:46;;;;;;;14.88;3.97;;;16.90;99.90;;;;;;4929745;28;20404;-75
2023/06/02 06:57:12;;;;;;;10.30;3.40;;;16.80;99.90;;;;;;4929195;28;20086;-77
2023/06/02 06:59:42;;;;;;;15.65;4.35;;;16.80;99.90;;;;;;4928871;28;20044;-76
2023/06/02 07:02:08;;;;;;;19.27;4.43;;;16.90;99.90;;;;;;4930181;28;20074;-77
2023/06/02 07:04:33;;;;;;;18.95;4.07;;;17.10;99.90;;;;;;4893130;29;20052;-77
2023/06/02 07:06:59;;;;;;;14.68;3.35;;;17.50;99.90;;;;;;4917884;29;20392;-75
2023/06/02 07:09:25;;;;;;;15.40;4.07;;;18.00;99.90;;;;;;4908384;28;20063;-77
2023/06/02 07:11:50;;;;;;;11.65;3.47;;;18.30;99.90;;;;;;4913084;28;20071;-75
2023/06/02 07:14:17;;;;;;;11.40;3.38;;;18.70;99.90;;;;;;4929331;28;20051;-77
2023/06/02 07:16:46;;;;;;;9.23;3.38;;;18.80;99.90;;;;;;4894894;29;20130;-78
2023/06/02 07:19:12;;;;;;;14.80;3.25;;;18.80;99.90;;;;;;4917763;28;20082;-78
2023/06/02 07:21:38;;;;;;;13.68;3.38;;;18.40;99.90;;;;;;4912535;28;20098;-77
2023/06/02 07:24:03;;;;;;;14.57;3.33;;;18.80;99.90;;;;;;4928633;29;20048;-75
2023/06/02 07:26:29;;;;;;;7.80;2.53;;;18.70;99.90;;;;;;4928137;28;20093;-80
2023/06/02 07:28:56;;;;;;;8.55;2.75;;;19.00;99.90;;;;;;4881608;28;20130;-77
2023/06/02 07:31:22;;;;;;;13.32;3.30;;;19.10;99.90;;;;;;4911474;28;20055;-77
2023/06/02 07:33:48;;;;;;;9.25;2.53;;;19.60;99.90;;;;;;4911517;28;20051;-74
2023/06/02 07:36:14;;;;;;;12.43;2.83;;;19.30;99.90;;;;;;4926313;28;20384;-74
2023/06/02 07:38:39;;;;;;;7.10;2.30;;;19.40;99.90;;;;;;4910214;28;20062;-76
2023/06/02 07:41:05;;;;;;;7.88;2.20;;;19.70;99.90;;;;;;4927615;28;20055;-75
2023/06/02 07:43:31;;;;;;;5.47;2.03;;;19.60;99.90;;;;;;4929458;29;20055;-74
2023/06/02 07:45:57;;;;;;;6.68;1.83;;;19.40;99.90;;;;;;4930052;29;20065;-81
2023/06/02 07:48:22;;;;;;;3.40;1.75;;;19.80;99.90;;;;;;4899745;28;20468;-79
2023/06/02 07:50:48;;;;;;;5.45;1.88;;;19.80;99.90;;;;;;4913423;29;20055;-78
2023/06/02 07:53:14;;;;;;;6.88;2.25;;;19.90;99.90;;;;;;4912731;28;20126;-80
2023/06/02 07:55:39;;;;;;;5.47;2.03;;;19.80;99.90;;;;;;4907939;29;20043;-80
2023/06/02 07:58:05;;;;;;;5.38;1.90;;;19.70;99.90;;;;;;4928343;28;20101;-77
2023/06/02 08:00:31;;;;;;;6.00;1.70;;;19.70;99.90;;;;;;4927018;28;20047;-73
2023/06/02 08:02:56;;;;;;;5.93;2.55;;;19.70;99.90;;;;;;4917804;28;20049;-76
2023/06/02 08:05:22;;;;;;;4.45;1.90;;;19.80;99.90;;;;;;4896216;28;20638;-77
2023/06/02 08:07:48;;;;;;;5.10;1.48;;;19.70;99.90;;;;;;4896708;29;20040;-77
2023/06/02 08:10:13;;;;;;;7.03;1.42;;;19.80;99.90;;;;;;4979906;28;20030;-77
2023/06/02 08:12:39;;;;;;;4.70;1.35;;;19.80;99.90;;;;;;4926451;28;20094;-76
2023/06/02 08:15:05;;;;;;;4.35;1.50;;;19.90;99.90;;;;;;4913796;29;20044;-77
2023/06/02 08:17:31;;;;;;;3.50;1.40;;;19.90;99.90;;;;;;4912953;29;20044;-79
2023/06/02 08:19:58;;;;;;;2.33;1.00;;;20.10;99.90;;;;;;4928091;29;20059;-79
2023/06/02 08:22:26;;;;;;;3.92;1.20;;;19.80;99.90;;;;;;4912201;28;20039;-75
2023/06/02 08:24:53;;;;;;;2.97;1.25;;;19.60;99.90;;;;;;4912656;29;20035;-75
2023/06/02 08:27:21;;;;;;;3.90;1.38;;;19.70;99.90;;;;;;4912953;29;20097;-73
2023/06/02 08:29:49;;;;;;;2.72;1.20;;;20.00;99.90;;;;;;4926242;28;20043;-78
2023/06/02 08:32:17;;;;;;;4.22;1.70;;;20.20;99.90;;;;;;4927724;28;20097;-78
2023/06/02 08:34:44;;;;;;;10.68;2.45;;;20.40;99.90;;;;;;4900496;28;20035;-76
2023/06/02 08:37:16;;;;;;;4.32;1.70;;;20.30;99.90;;;;;;4927686;28;20806;-77
2023/06/02 08:39:42;;;;;;;4.07;1.58;;;20.20;99.90;;;;;;4911970;29;20086;-77
2023/06/02 08:42:10;;;;;;;1.67;1.20;;;20.40;99.90;;;;;;4912814;28;20155;-76
2023/06/02 08:44:36;;;;;;;4.05;1.20;;;20.30;99.90;;;;;;4913031;29;20039;-76
2023/06/02 08:47:03;;;;;;;5.53;1.40;;;20.40;99.90;;;;;;4910981;29;20035;-75
2023/06/02 08:49:31;;;;;;;3.28;1.20;;;20.70;99.90;;;;;;4896526;29;20085;-78
2023/06/02 08:52:02;;;;;;;3.08;1.30;;;20.80;99.90;;;;;;4927643;29;20125;-72
2023/06/02 08:54:30;;;;;;;3.92;1.45;;;20.50;99.90;;;;;;4928799;29;20052;-76
2023/06/02 08:56:59;;;;;;;4.28;1.40;;;20.60;99.90;;;;;;4927863;28;20126;-76
2023/06/02 08:59:26;;;;;;;3.55;1.40;;;20.30;99.90;;;;;;4905128;28;20075;-77
2023/06/02 09:01:52;;;;;;;4.97;1.50;;;20.40;99.90;;;;;;4926554;28;20993;-75
2023/06/02 09:04:18;;;;;;;2.17;1.20;;;20.80;99.90;;;;;;4911823;28;20480;-75
2023/06/02 09:06:44;;;;;;;5.88;1.20;;;20.90;99.90;;;;;;4927567;28;20065;-75
2023/06/02 09:09:09;;;;;;;2.38;1.48;;;20.70;87.30;;;;;;4928474;29;20405;-78
2023/06/02 09:11:35;;;;;;;4.60;1.38;;;21.00;99.40;;;;;;4926917;28;20047;-76
2023/06/02 09:14:16;;;;;;;3.03;1.20;;;21.30;99.90;;;;;;4909490;28;20044;-77
2023/06/02 09:16:42;;;;;;;4.00;1.50;;;21.60;99.90;;;;;;4912205;28;20054;-78
2023/06/02 09:19:08;;;;;;;3.08;1.00;;;22.00;99.90;;;;;;4896691;29;20035;-74
2023/06/02 09:21:35;;;;;;;3.53;1.40;;;22.30;99.90;;;;;;4910078;29;20047;-75
2023/06/02 09:24:02;;;;;;;3.17;1.20;;;22.70;99.90;;;;;;4927894;28;20130;-78
2023/06/02 09:26:32;;;;;;;1.98;1.13;;;21.80;79.60;;;;;;4912162;28;20040;-78
2023/06/02 09:29:05;;;;;;;6.22;1.75;;;21.50;20.60;;;;;;4896907;29;20396;-76
2023/06/02 09:31:53;;;;;;;3.97;1.27;;;21.50;27.90;;;;;;4896807;28;20040;-78
2023/06/02 09:34:22;;;;;;;3.72;1.27;;;21.90;3.00;;;;;;4916398;28;20040;-77
2023/06/02 09:36:49;;;;;;;2.63;1.30;;;22.50;45.80;;;;;;4928225;28;20051;-76
2023/06/02 09:39:34;;;;;;;3.40;1.50;;;22.40;64.80;;;;;;4896577;29;20488;-79
2023/06/02 09:42:00;;;;;;;;;;;22.70;26.20;;;;;;4912621;28;20059;-78
2023/06/02 09:44:26;;;;;;;3.03;1.77;;;22.90;1.00;;;;;;4927239;28;20555;-80
2023/06/02 09:46:52;;;;;;;2.47;1.05;;;21.80;23.50;;;;;;4912589;28;20070;-77
2023/06/02 09:49:18;;;;;;;3.35;1.42;;;22.30;24.10;;;;;;4912240;29;20043;-82
2023/06/02 09:51:44;;;;;;;2.38;1.30;;;22.50;28.70;;;;;;4926993;29;20055;-78
2023/06/02 09:54:11;;;;;;;2.25;1.15;;;23.00;25.50;;;;;;4927685;29;20048;-77
2023/06/02 09:56:38;;;;;;;3.35;1.48;;;22.60;2.20;;;;;;4912923;28;20052;-78
2023/06/02 09:59:05;;;;;;;4.00;1.40;;;23.40;9.00;;;;;;4932205;29;20369;-79
2023/06/02 10:01:32;;;;;;;3.33;1.33;;;23.70;1.00;;;;;;4932084;28;20043;-81
2023/06/02 10:03:58;;;;;;;2.08;1.05;;;23.10;1.00;;;;;;4931496;28;20048;-79
2023/06/02 10:06:49;;;;;;;2.17;1.25;;;22.80;1.00;;;;;;4928601;28;20078;-77
2023/06/02 10:09:48;;;;;;;3.50;1.38;;;23.10;99.90;;;;;;4912411;29;20385;-81
2023/06/02 10:12:16;;;;;;;3.58;1.27;;;23.20;99.90;;;;;;4914688;28;20465;-79
2023/06/02 10:14:54;;;;;;;1.77;1.10;;;22.80;99.90;;;;;;4914076;28;20391;-78
2023/06/02 10:17:31;;;;;;;3.25;1.33;;;22.50;99.90;;;;;;4914580;28;20051;-77
2023/06/02 10:20:03;;;;;;;2.47;1.23;;;23.00;99.90;;;;;;4915481;29;20108;-79
2023/06/02 10:22:45;;;;;;;2.78;1.02;;;23.70;99.90;;;;;;4928090;28;20535;-79
2023/06/02 10:25:30;;;;;;;2.38;1.10;;;23.40;99.90;;;;;;4909258;28;20048;-81
2023/06/02 10:27:57;;;;;;;3.38;1.10;;;23.30;99.90;;;;;;4914468;28;20048;-80
2023/06/02 10:30:26;;;;;;;2.13;1.00;;;24.00;99.90;;;;;;4914383;29;20094;-82
2023/06/02 10:32:53;;;;;;;3.00;1.27;;;24.30;99.90;;;;;;4914741;28;20043;-78
2023/06/02 10:35:19;;;;;;;2.28;1.35;;;22.90;99.90;;;;;;4914395;28;20054;-74
2023/06/02 10:37:45;;;;;;;1.30;1.02;;;22.70;99.90;;;;;;4914796;28;20036;-79
2023/06/02 10:40:11;;;;;;;2.85;1.48;;;22.70;55.80;;;;;;4911326;29;20526;-77
2023/06/02 10:42:38;;;;;;;5.38;1.25;;;22.30;99.90;;;;;;4929322;28;20054;-76
2023/06/02 10:45:26;;;;;;;3.00;1.30;;;23.20;99.90;;;;;;4913699;29;20046;-77
2023/06/02 10:47:52;;;;;;;4.32;1.33;;;23.50;99.90;;;;;;4931313;29;20079;-82
2023/06/02 10:50:21;;;;;;;2.33;1.30;;;22.20;99.90;;;;;;4898824;29;20087;-78
2023/06/02 10:53:04;;;;;;;4.32;1.40;;;22.40;99.90;;;;;;4915352;28;20126;-76
2023/06/02 10:55:34;;;;;;;3.08;1.73;;;23.40;99.90;;;;;;4913672;28;20472;-79
2023/06/02 10:58:05;;;;;;;5.07;1.73;;;23.80;99.90;;;;;;4931108;28;20079;-78
2023/06/02 11:00:39;;;;;;;4.68;1.40;;;23.90;99.90;;;;;;4907872;29;20036;-78
2023/06/02 11:03:14;;;;;;;2.15;1.17;;;23.80;99.90;;;;;;4908916;28;20054;-77
2023/06/02 11:05:41;;;;;;;4.75;1.70;;;23.80;99.90;;;;;;4913547;29;20075;-78
2023/06/02 11:08:18;;;;;;;4.07;1.70;;;23.30;99.90;;;;;;4890135;28;20119;-80
2023/06/02 11:10:44;;;;;;;5.85;1.58;;;22.10;99.90;;;;;;4914799;28;20036;-75
2023/06/02 11:13:11;;;;;;;5.60;1.98;;;23.30;99.90;;;;;;4929710;28;20132;-77
2023/06/02 11:15:37;;;;;;;4.22;1.67;;;23.30;99.90;;;;;;4913203;29;20075;-79
2023/06/02 11:18:21;;;;;;;3.85;1.58;;;24.20;99.90;;;;;;4927231;28;20082;-76
2023/06/02 11:20:51;;;;;;;3.50;1.90;;;24.40;99.90;;;;;;4930209;28;20054;-77
2023/06/02 11:23:19;;;;;;;4.95;1.90;;;23.90;99.90;;;;;;4929664;28;20122;-77
2023/06/02 11:25:46;;;;;;;5.00;1.90;;;23.80;99.90;;;;;;4929875;29;20040;-79
2023/06/02 11:28:17;;;;;;;3.85;2.00;;;23.40;99.90;;;;;;4927685;28;20043;-78
2023/06/02 11:30:43;;;;;;;4.50;1.77;;;22.90;1.00;;;;;;4914352;28;20083;-76
2023/06/02 11:33:08;;;;;;;4.45;2.13;;;23.60;1.00;;;;;;4914196;28;20086;-77
2023/06/02 11:35:35;;;;;;;5.22;2.00;;;23.00;1.00;;;;;;4911722;29;20147;-82
2023/06/02 11:38:08;;;;;;;5.63;1.90;;;22.20;1.00;;;;;;4906554;28;20656;-76
2023/06/02 11:40:37;;;;;;;3.25;1.83;;;22.00;1.00;;;;;;4928537;29;20043;-77
2023/06/02 11:43:03;;;;;;;6.00;2.30;;;22.50;1.00;;;;;;4901594;28;20051;-81
2023/06/02 11:45:29;;;;;;;3.70;2.22;;;23.10;1.00;;;;;;4914763;29;20035;-79
2023/06/02 11:47:57;;;;;;;7.38;2.50;;;23.00;1.00;;;;;;4912669;28;20087;-82
2023/06/02 11:50:23;;;;;;;3.25;2.13;;;23.30;1.00;;;;;;4927878;28;20036;-79
2023/06/02 11:52:49;;;;;;;4.78;1.90;;;23.10;1.00;;;;;;4911239;28;20104;-78
2023/06/02 11:55:15;;;;;;;5.88;2.20;;;23.10;1.00;;;;;;4898020;29;20454;-83
2023/06/02 11:57:43;;;;;;;4.60;2.17;;;24.00;1.00;;;;;;4896607;28;20097;-81
2023/06/02 12:00:15;;;;;;;3.70;2.20;;;24.10;99.90;;;;;;4909934;29;20044;-80
2023/06/02 12:02:52;;;;;;;4.95;2.28;;;24.30;99.90;;;;;;4921610;29;20048;-83
2023/06/02 12:05:29;;;;;;;5.03;2.25;;;23.90;99.90;;;;;;4929506;29;20126;-79
2023/06/02 12:07:56;;;;;;;4.57;2.22;;;23.60;99.90;;;;;;4911780;28;20055;-80
2023/06/02 12:10:29;;;;;;;5.75;2.35;;;24.10;1.00;;;;;;4906663;28;20043;-78
2023/06/02 12:12:55;;;;;;;6.50;2.20;;;23.70;1.00;;;;;;4911170;28;20135;-77
2023/06/02 12:15:21;;;;;;;5.65;2.45;;;23.50;1.00;;;;;;4913578;29;20134;-80
2023/06/02 12:17:47;;;;;;;8.98;2.38;;;22.80;1.00;;;;;;4911146;28;20044;-79
2023/06/02 12:20:12;;;;;;;4.65;2.08;;;23.40;1.00;;;;;;4912006;28;20043;-75
2023/06/02 12:22:55;;;;;;;6.95;2.75;;;23.00;1.00;;;;;;4928140;29;20097;-74
2023/06/02 12:25:20;;;;;;;7.35;2.75;;;22.90;1.00;;;;;;4912681;29;20043;-77
2023/06/02 12:27:48;;;;;;;6.90;2.40;;;22.80;1.00;;;;;;4901178;28;20102;-79
2023/06/02 12:30:15;;;;;;;5.53;2.38;;;23.30;1.00;;;;;;4928142;28;20051;-75
2023/06/02 12:32:41;;;;;;;5.68;2.40;;;24.30;1.00;;;;;;4922019;28;20047;-81
2023/06/02 12:35:07;;;;;;;5.20;2.35;;;22.60;1.00;;;;;;4913756;29;20058;-76
2023/06/02 12:37:32;;;;;;;4.72;2.80;;;22.80;1.00;;;;;;4897107;29;20044;-76
2023/06/02 12:39:58;;;;;;;3.67;2.30;;;22.40;1.00;;;;;;4897038;28;20130;-74
2023/06/02 12:42:24;;;;;;;9.85;2.50;;;23.00;1.00;;;;;;4908535;28;20044;-77
2023/06/02 12:44:52;;;;;;;5.50;2.47;;;23.00;1.00;;;;;;4928812;29;20075;-80